createdAt,value
2022-10-23T00:00:04.856Z,98013.00
2022-10-23T00:00:14.942Z,98013.00
2022-10-23T00:00:25.016Z,98013.00
2022-10-23T00:00:35.140Z,98015.00
2022-10-23T00:00:45.150Z,98013.00
2022-10-23T00:00:55.037Z,98013.00
2022-10-23T00:01:05.032Z,98015.00
2022-10-23T00:01:15.170Z,98013.00
2022-10-23T00:01:25.176Z,98015.00
2022-10-23T00:01:35.294Z,98013.00
2022-10-23T00:01:45.553Z,98013.00
2022-10-23T00:01:55.696Z,98011.00
2022-10-23T00:02:05.717Z,98013.00
2022-10-23T00:02:15.996Z,98011.00
2022-10-23T00:02:26.056Z,98011.00
2022-10-23T00:02:36.123Z,98013.00
2022-10-23T00:02:46.537Z,98011.00
2022-10-23T00:02:56.396Z,98011.00
2022-10-23T00:03:06.407Z,98009.00
2022-10-23T00:03:16.523Z,98009.00
2022-10-23T00:03:26.768Z,98009.00
2022-10-23T00:03:36.884Z,98009.00
2022-10-23T00:03:46.997Z,98007.00
2022-10-23T00:03:57.120Z,98009.00
2022-10-23T00:04:07.237Z,98007.00
2022-10-23T00:04:17.239Z,98007.00
2022-10-23T00:04:27.508Z,98007.00
2022-10-23T00:04:37.620Z,98007.00
2022-10-23T00:04:47.740Z,98007.00
2022-10-23T00:04:57.870Z,98007.00
2022-10-23T00:05:07.864Z,98005.00
2022-10-23T00:05:17.983Z,98005.00
2022-10-23T00:05:28.241Z,98003.00
2022-10-23T00:05:38.365Z,98005.00
2022-10-23T00:05:48.361Z,98003.00
2022-10-23T00:05:58.611Z,98005.00
2022-10-23T00:06:08.725Z,98005.00
2022-10-23T00:06:18.843Z,98005.00
2022-10-23T00:06:28.964Z,98005.00
2022-10-23T00:06:39.102Z,98003.00
2022-10-23T00:06:49.110Z,98005.00
2022-10-23T00:06:59.353Z,98005.00
2022-10-23T00:07:09.469Z,98005.00
2022-10-23T00:07:19.616Z,98003.00
2022-10-23T00:07:39.836Z,98005.00
2022-10-23T00:07:49.957Z,98003.00
2022-10-23T00:08:00.196Z,98003.00
2022-10-23T00:08:10.312Z,98003.00
2022-10-23T00:08:20.427Z,98003.00
2022-10-23T00:08:30.549Z,98003.00
2022-10-23T00:08:40.551Z,98003.00
2022-10-23T00:08:50.665Z,98001.00
2022-10-23T00:09:00.924Z,98003.00
2022-10-23T00:09:11.040Z,98003.00
2022-10-23T00:09:21.160Z,98003.00
2022-10-23T00:09:31.288Z,98001.00
2022-10-23T00:09:41.410Z,97999.00
2022-10-23T00:09:51.409Z,97999.00
2022-10-23T00:10:01.664Z,98001.00
2022-10-23T00:10:11.779Z,97997.00
2022-10-23T00:10:21.900Z,97999.00
2022-10-23T00:10:32.020Z,97997.00
2022-10-23T00:10:42.139Z,97997.00
2022-10-23T00:10:52.142Z,97997.00
2022-10-23T00:11:02.395Z,97997.00
2022-10-23T00:11:12.562Z,97999.00
2022-10-23T00:11:22.554Z,97999.00
2022-10-23T00:11:32.810Z,97997.00
2022-10-23T00:11:42.942Z,97999.00
2022-10-23T00:11:53.062Z,97997.00
2022-10-23T00:12:03.191Z,97999.00
2022-10-23T00:12:13.181Z,97997.00
2022-10-23T00:12:23.189Z,97997.00
2022-10-23T00:12:33.191Z,97997.00
2022-10-23T00:12:43.682Z,97995.00
2022-10-23T00:12:53.407Z,97995.00
2022-10-23T00:13:03.406Z,97997.00
2022-10-23T00:13:13.413Z,98003.00
2022-10-23T00:13:23.539Z,98001.00
2022-10-23T00:13:33.539Z,97997.00
2022-10-23T00:13:43.681Z,97995.00
2022-10-23T00:13:53.679Z,97997.00
2022-10-23T00:14:03.801Z,97995.00
2022-10-23T00:14:14.081Z,97995.00
2022-10-23T00:14:24.080Z,98001.00
2022-10-23T00:14:34.284Z,98001.00
2022-10-23T00:14:44.531Z,97997.00
2022-10-23T00:14:54.525Z,98001.00
2022-10-23T00:15:04.644Z,97999.00
2022-10-23T00:15:14.906Z,98001.00
2022-10-23T00:15:24.905Z,98001.00
2022-10-23T00:15:34.907Z,98001.00
2022-10-23T00:15:44.938Z,97999.00
2022-10-23T00:15:54.936Z,97999.00
2022-10-23T00:16:05.063Z,97999.00
2022-10-23T00:16:15.054Z,97997.00
2022-10-23T00:16:25.180Z,97999.00
2022-10-23T00:16:35.185Z,97999.00
2022-10-23T00:16:45.313Z,97999.00
2022-10-23T00:16:55.309Z,97997.00
2022-10-23T00:17:05.450Z,97997.00
2022-10-23T00:17:15.423Z,97999.00
2022-10-23T00:17:25.672Z,97999.00
2022-10-23T00:17:35.683Z,97999.00
2022-10-23T00:17:45.870Z,97999.00
2022-10-23T00:17:56.087Z,97999.00
2022-10-23T00:18:06.205Z,97999.00
2022-10-23T00:18:16.320Z,97997.00
2022-10-23T00:18:26.444Z,97997.00
2022-10-23T00:18:36.564Z,97995.00
2022-10-23T00:18:46.567Z,97997.00
2022-10-23T00:18:56.827Z,97997.00
2022-10-23T00:19:06.951Z,97997.00
2022-10-23T00:19:17.068Z,97995.00
2022-10-23T00:19:27.189Z,97997.00
2022-10-23T00:19:37.312Z,97995.00
2022-10-23T00:19:47.309Z,97997.00
2022-10-23T00:19:57.565Z,97995.00
2022-10-23T00:20:07.565Z,97995.00
2022-10-23T00:20:17.567Z,97997.00
2022-10-23T00:20:27.944Z,97997.00
2022-10-23T00:20:38.060Z,97999.00
2022-10-23T00:20:48.176Z,97995.00
2022-10-23T00:20:58.298Z,97995.00
2022-10-23T00:21:08.419Z,97997.00
2022-10-23T00:21:18.426Z,97995.00
2022-10-23T00:21:28.684Z,97994.00
2022-10-23T00:21:38.804Z,97995.00
2022-10-23T00:21:48.923Z,97995.00
2022-10-23T00:21:59.044Z,97997.00
2022-10-23T00:22:09.163Z,97994.00
2022-10-23T00:22:19.157Z,97995.00
2022-10-23T00:22:29.413Z,97994.00
2022-10-23T00:22:39.412Z,97994.00
2022-10-23T00:22:49.550Z,97992.00
2022-10-23T00:22:59.802Z,97995.00
2022-10-23T00:23:09.920Z,97994.00
2022-10-23T00:23:20.036Z,97992.00
2022-10-23T00:23:30.171Z,97994.00
2022-10-23T00:23:40.171Z,97994.00
2022-10-23T00:23:50.165Z,97994.00
2022-10-23T00:24:00.597Z,97992.00
2022-10-23T00:24:10.597Z,97994.00
2022-10-23T00:24:20.714Z,97990.00
2022-10-23T00:24:30.966Z,97992.00
2022-10-23T00:24:40.963Z,97992.00
2022-10-23T00:24:51.127Z,97990.00
2022-10-23T00:25:01.384Z,97990.00
2022-10-23T00:25:11.378Z,97990.00
2022-10-23T00:25:21.505Z,97988.00
2022-10-23T00:25:31.753Z,97990.00
2022-10-23T00:25:41.767Z,97990.00
2022-10-23T00:25:51.782Z,97988.00
2022-10-23T00:26:01.773Z,97990.00
2022-10-23T00:26:11.895Z,97990.00
2022-10-23T00:26:22.014Z,97990.00
2022-10-23T00:26:32.140Z,97990.00
2022-10-23T00:26:42.148Z,97990.00
2022-10-23T00:26:52.262Z,97988.00
2022-10-23T00:27:02.266Z,97990.00
2022-10-23T00:27:12.383Z,97988.00
2022-10-23T00:27:22.381Z,97988.00
2022-10-23T00:27:32.499Z,97988.00
2022-10-23T00:27:42.917Z,97988.00
2022-10-23T00:27:52.528Z,97990.00
2022-10-23T00:28:02.555Z,97988.00
2022-10-23T00:28:12.563Z,97988.00
2022-10-23T00:28:22.681Z,97990.00
2022-10-23T00:28:32.801Z,97994.00
2022-10-23T00:28:42.913Z,97990.00
2022-10-23T00:28:53.039Z,97992.00
2022-10-23T00:29:03.039Z,97994.00
2022-10-23T00:29:13.163Z,97992.00
2022-10-23T00:29:23.159Z,97994.00
2022-10-23T00:29:33.282Z,97995.00
2022-10-23T00:29:43.280Z,97995.00
2022-10-23T00:29:53.406Z,97995.00
2022-10-23T00:30:03.529Z,97994.00
2022-10-23T00:30:13.645Z,97995.00
2022-10-23T00:30:23.771Z,97994.00
2022-10-23T00:30:33.885Z,97992.00
2022-10-23T00:30:44.001Z,97992.00
2022-10-23T00:30:54.123Z,97997.00
2022-10-23T00:31:04.123Z,97994.00
2022-10-23T00:31:14.249Z,97995.00
2022-10-23T00:31:24.380Z,97995.00
2022-10-23T00:31:34.501Z,97997.00
2022-10-23T00:31:44.507Z,97995.00
2022-10-23T00:31:54.748Z,97995.00
2022-10-23T00:32:04.756Z,97995.00
2022-10-23T00:32:14.779Z,97992.00
2022-10-23T00:32:25.276Z,97992.00
2022-10-23T00:32:35.155Z,97992.00
2022-10-23T00:32:45.271Z,97994.00
2022-10-23T00:32:55.525Z,97990.00
2022-10-23T00:33:05.519Z,97992.00
2022-10-23T00:33:15.639Z,97992.00
2022-10-23T00:33:25.894Z,97990.00
2022-10-23T00:33:36.018Z,97990.00
2022-10-23T00:33:46.018Z,97990.00
2022-10-23T00:33:56.269Z,97992.00
2022-10-23T00:34:06.393Z,97990.00
2022-10-23T00:34:16.511Z,97988.00
2022-10-23T00:34:26.637Z,97990.00
2022-10-23T00:34:36.758Z,97990.00
2022-10-23T00:34:46.875Z,97990.00
2022-10-23T00:34:57.000Z,97990.00
2022-10-23T00:35:06.999Z,97992.00
2022-10-23T00:35:17.118Z,97990.00
2022-10-23T00:35:27.381Z,97990.00
2022-10-23T00:35:37.376Z,97990.00
2022-10-23T00:35:47.502Z,97994.00
2022-10-23T00:35:57.758Z,97990.00
2022-10-23T00:36:07.884Z,97990.00
2022-10-23T00:36:17.894Z,97992.00
2022-10-23T00:36:28.141Z,97992.00
2022-10-23T00:36:38.257Z,97992.00
2022-10-23T00:36:48.374Z,97990.00
2022-10-23T00:36:58.501Z,97990.00
2022-10-23T00:37:08.504Z,97992.00
2022-10-23T00:37:18.504Z,97994.00
2022-10-23T00:37:28.505Z,97990.00
2022-10-23T00:37:38.655Z,97992.00
2022-10-23T00:37:48.640Z,97990.00
2022-10-23T00:37:58.757Z,97992.00
2022-10-23T00:38:08.888Z,97992.00
2022-10-23T00:38:18.998Z,97992.00
2022-10-23T00:38:29.121Z,97992.00
2022-10-23T00:38:39.127Z,97994.00
2022-10-23T00:38:49.148Z,97992.00
2022-10-23T00:38:59.139Z,97995.00
2022-10-23T00:39:09.265Z,97992.00
2022-10-23T00:39:19.291Z,97994.00
2022-10-23T00:39:29.285Z,97994.00
2022-10-23T00:39:39.284Z,97994.00
2022-10-23T00:39:49.423Z,97992.00
2022-10-23T00:39:59.412Z,97997.00
2022-10-23T00:40:09.530Z,97992.00
2022-10-23T00:40:19.659Z,97994.00
2022-10-23T00:40:29.658Z,97995.00
2022-10-23T00:40:39.831Z,97994.00
2022-10-23T00:40:59.831Z,97995.00
2022-10-23T00:41:09.839Z,97994.00
2022-10-23T00:41:20.091Z,97997.00
2022-10-23T00:41:30.211Z,97997.00
2022-10-23T00:41:40.335Z,97997.00
2022-10-23T00:41:50.464Z,97997.00
2022-10-23T00:42:00.462Z,97997.00
2022-10-23T00:42:10.582Z,97997.00
2022-10-23T00:42:20.827Z,97995.00
2022-10-23T00:42:30.948Z,97997.00
2022-10-23T00:42:41.368Z,97999.00
2022-10-23T00:42:51.267Z,97997.00
2022-10-23T00:43:01.384Z,97997.00
2022-10-23T00:43:11.503Z,97999.00
2022-10-23T00:43:21.633Z,97999.00
2022-10-23T00:43:31.751Z,97999.00
2022-10-23T00:43:41.872Z,97999.00
2022-10-23T00:43:52.004Z,98001.00
2022-10-23T00:44:02.000Z,98003.00
2022-10-23T00:44:12.115Z,98001.00
2022-10-23T00:44:22.360Z,98003.00
2022-10-23T00:44:32.480Z,98003.00
2022-10-23T00:44:42.477Z,98001.00
2022-10-23T00:44:52.724Z,98001.00
2022-10-23T00:45:02.723Z,98001.00
2022-10-23T00:45:12.844Z,98001.00
2022-10-23T00:45:23.103Z,98003.00
2022-10-23T00:45:33.226Z,98001.00
2022-10-23T00:45:43.348Z,97999.00
2022-10-23T00:45:53.475Z,97999.00
2022-10-23T00:46:03.599Z,97999.00
2022-10-23T00:46:13.713Z,98001.00
2022-10-23T00:46:23.837Z,97999.00
2022-10-23T00:46:33.844Z,97999.00
2022-10-23T00:46:43.961Z,97999.00
2022-10-23T00:46:54.229Z,97997.00
2022-10-23T00:47:04.349Z,97997.00
2022-10-23T00:47:14.347Z,97995.00
2022-10-23T00:47:24.628Z,97995.00
2022-10-23T00:47:34.720Z,97995.00
2022-10-23T00:47:44.834Z,97994.00
2022-10-23T00:47:54.965Z,97995.00
2022-10-23T00:48:04.973Z,97994.00
2022-10-23T00:48:15.089Z,97995.00
2022-10-23T00:48:25.365Z,97994.00
2022-10-23T00:48:35.364Z,97994.00
2022-10-23T00:48:45.356Z,97994.00
2022-10-23T00:48:55.735Z,97994.00
2022-10-23T00:49:05.920Z,97994.00
2022-10-23T00:49:15.941Z,97994.00
2022-10-23T00:49:26.211Z,97994.00
2022-10-23T00:49:38.373Z,97994.00
2022-10-23T00:49:46.301Z,97995.00
2022-10-23T00:49:56.418Z,97995.00
2022-10-23T00:50:06.541Z,97997.00
2022-10-23T00:50:16.543Z,97995.00
2022-10-23T00:50:26.542Z,97995.00
2022-10-23T00:50:36.661Z,97994.00
2022-10-23T00:50:46.792Z,97995.00
2022-10-23T00:50:56.912Z,97995.00
2022-10-23T00:51:06.910Z,97995.00
2022-10-23T00:51:17.154Z,97994.00
2022-10-23T00:51:27.280Z,97995.00
2022-10-23T00:51:37.389Z,97992.00
2022-10-23T00:51:47.508Z,97994.00
2022-10-23T00:51:57.624Z,97994.00
2022-10-23T00:52:07.619Z,97994.00
2022-10-23T00:52:17.870Z,97994.00
2022-10-23T00:52:27.982Z,97994.00
2022-10-23T00:52:38.097Z,97992.00
2022-10-23T00:52:48.216Z,97994.00
2022-10-23T00:52:58.332Z,97992.00
2022-10-23T00:53:08.327Z,97990.00
2022-10-23T00:53:18.576Z,97990.00
2022-10-23T00:53:28.695Z,97994.00
2022-10-23T00:53:38.820Z,97992.00
2022-10-23T00:53:56.730Z,97990.00
2022-10-23T00:54:06.505Z,97992.00
2022-10-23T00:54:25.418Z,97994.00
2022-10-23T00:54:26.588Z,97994.00
2022-10-23T00:54:29.325Z,97992.00
2022-10-23T00:54:39.438Z,97992.00
2022-10-23T00:54:49.442Z,97994.00
2022-10-23T00:54:59.560Z,97990.00
2022-10-23T00:55:09.690Z,97990.00
2022-10-23T00:55:19.682Z,97994.00
2022-10-23T00:55:29.797Z,97992.00
2022-10-23T00:55:39.914Z,97990.00
2022-10-23T00:55:49.916Z,97990.00
2022-10-23T00:56:00.035Z,97990.00
2022-10-23T00:56:10.153Z,97990.00
2022-10-23T00:56:20.280Z,97990.00
2022-10-23T00:56:30.268Z,97990.00
2022-10-23T00:56:40.394Z,97990.00
2022-10-23T00:56:50.523Z,97990.00
2022-10-23T00:57:00.659Z,97992.00
2022-10-23T00:57:10.664Z,97988.00
2022-10-23T00:57:20.985Z,97990.00
2022-10-23T00:57:30.986Z,97990.00
2022-10-23T00:57:41.105Z,97990.00
2022-10-23T00:57:51.366Z,97988.00
2022-10-23T00:58:01.474Z,97988.00
2022-10-23T00:58:11.599Z,97988.00
2022-10-23T00:58:21.731Z,97990.00
2022-10-23T00:58:31.722Z,97988.00
2022-10-23T00:58:41.848Z,97988.00
2022-10-23T00:58:52.103Z,97988.00
2022-10-23T00:59:02.230Z,97988.00
2022-10-23T00:59:12.224Z,97988.00
2022-10-23T00:59:22.472Z,97988.00
2022-10-23T00:59:32.482Z,97986.00
2022-10-23T00:59:42.475Z,97986.00
2022-10-23T00:59:52.851Z,97986.00
2022-10-23T01:00:02.969Z,97988.00
2022-10-23T01:00:12.969Z,97982.00
2022-10-23T01:00:23.219Z,97986.00
2022-10-23T01:00:33.225Z,97988.00
2022-10-23T01:00:43.344Z,97984.00
2022-10-23T01:00:53.604Z,97984.00
2022-10-23T01:01:03.792Z,97986.00
2022-10-23T01:01:13.871Z,97984.00
2022-10-23T01:01:24.256Z,97984.00
2022-10-23T01:01:34.368Z,97986.00
2022-10-23T01:01:44.441Z,97986.00
2022-10-23T01:01:54.749Z,97986.00
2022-10-23T01:02:04.715Z,97982.00
2022-10-23T01:02:14.854Z,97982.00
2022-10-23T01:02:24.730Z,97982.00
2022-10-23T01:02:34.826Z,97984.00
2022-10-23T01:02:45.317Z,97984.00
2022-10-23T01:02:54.835Z,97984.00
2022-10-23T01:03:04.969Z,97984.00
2022-10-23T01:03:14.961Z,97982.00
2022-10-23T01:03:25.100Z,97982.00
2022-10-23T01:03:35.220Z,97982.00
2022-10-23T01:03:45.337Z,97982.00
2022-10-23T01:03:55.455Z,97980.00
2022-10-23T01:04:05.578Z,97980.00
2022-10-23T01:04:15.690Z,97972.00
2022-10-23T01:04:25.808Z,97972.00
2022-10-23T01:04:35.930Z,97972.00
2022-10-23T01:04:46.045Z,97972.00
2022-10-23T01:04:56.173Z,97970.00
2022-10-23T01:05:06.301Z,97980.00
2022-10-23T01:05:16.300Z,97972.00
2022-10-23T01:05:26.425Z,97972.00
2022-10-23T01:05:36.719Z,97972.00
2022-10-23T01:05:56.794Z,97970.00
2022-10-23T01:06:06.791Z,97972.00
2022-10-23T01:06:16.914Z,97966.00
2022-10-23T01:06:27.032Z,97966.00
2022-10-23T01:06:37.153Z,97968.00
2022-10-23T01:06:47.151Z,97966.00
2022-10-23T01:06:57.150Z,97966.00
2022-10-23T01:07:07.264Z,97966.00
2022-10-23T01:07:17.385Z,97966.00
2022-10-23T01:07:27.504Z,97966.00
2022-10-23T01:07:37.621Z,97966.00
2022-10-23T01:07:47.745Z,97964.00
2022-10-23T01:07:57.775Z,97964.00
2022-10-23T01:08:07.892Z,97966.00
2022-10-23T01:08:18.015Z,97964.00
2022-10-23T01:08:28.145Z,97964.00
2022-10-23T01:08:38.141Z,97964.00
2022-10-23T01:08:48.262Z,97960.00
2022-10-23T01:08:58.377Z,97964.00
2022-10-23T01:09:08.498Z,97960.00
2022-10-23T01:09:18.632Z,97962.00
2022-10-23T01:09:28.766Z,97962.00
2022-10-23T01:09:38.769Z,97962.00
2022-10-23T01:09:49.020Z,97962.00
2022-10-23T01:09:59.142Z,97964.00
2022-10-23T01:10:09.138Z,97962.00
2022-10-23T01:10:19.397Z,97962.00
2022-10-23T01:10:29.394Z,97960.00
2022-10-23T01:10:39.388Z,97960.00
2022-10-23T01:10:49.388Z,97962.00
2022-10-23T01:10:59.509Z,97960.00
2022-10-23T01:11:09.631Z,97962.00
2022-10-23T01:11:19.747Z,97962.00
2022-10-23T01:11:29.749Z,97960.00
2022-10-23T01:11:39.761Z,97958.00
2022-10-23T01:11:49.759Z,97958.00
2022-10-23T01:11:59.760Z,97956.00
2022-10-23T01:12:09.884Z,97958.00
2022-10-23T01:12:19.877Z,97958.00
2022-10-23T01:12:30.125Z,97956.00
2022-10-23T01:12:40.246Z,97958.00
2022-10-23T01:12:50.363Z,97960.00
2022-10-23T01:13:00.492Z,97960.00
2022-10-23T01:13:10.620Z,97962.00
2022-10-23T01:13:20.616Z,97960.00
2022-10-23T01:13:30.870Z,97960.00
2022-10-23T01:13:40.993Z,97958.00
2022-10-23T01:13:51.044Z,97960.00
2022-10-23T01:14:01.300Z,97960.00
2022-10-23T01:14:11.418Z,97960.00
2022-10-23T01:14:21.536Z,97962.00
2022-10-23T01:14:31.659Z,97960.00
2022-10-23T01:14:41.654Z,97962.00
2022-10-23T01:14:51.772Z,97964.00
2022-10-23T01:15:02.036Z,97958.00
2022-10-23T01:15:12.149Z,97964.00
2022-10-23T01:15:22.265Z,97960.00
2022-10-23T01:15:32.390Z,97960.00
2022-10-23T01:15:42.506Z,97960.00
2022-10-23T01:15:52.625Z,97962.00
2022-10-23T01:16:02.747Z,97962.00
2022-10-23T01:16:12.865Z,97962.00
2022-10-23T01:16:22.986Z,97962.00
2022-10-23T01:16:33.118Z,97962.00
2022-10-23T01:16:43.114Z,97962.00
2022-10-23T01:16:53.234Z,97962.00
2022-10-23T01:17:03.482Z,97960.00
2022-10-23T01:17:13.610Z,97962.00
2022-10-23T01:17:23.611Z,97960.00
2022-10-23T01:17:33.858Z,97960.00
2022-10-23T01:17:44.727Z,97958.00
2022-10-23T01:17:54.079Z,97962.00
2022-10-23T01:18:04.212Z,97960.00
2022-10-23T01:18:14.329Z,97958.00
2022-10-23T01:18:24.328Z,97958.00
2022-10-23T01:18:34.577Z,97960.00
2022-10-23T01:18:44.577Z,97960.00
2022-10-23T01:18:54.695Z,97960.00
2022-10-23T01:19:04.942Z,97958.00
2022-10-23T01:19:15.061Z,97956.00
2022-10-23T01:19:25.175Z,97958.00
2022-10-23T01:19:35.302Z,97956.00
2022-10-23T01:19:45.421Z,97960.00
2022-10-23T01:19:55.537Z,97958.00
2022-10-23T01:20:05.667Z,97954.00
2022-10-23T01:20:15.784Z,97956.00
2022-10-23T01:20:25.784Z,97956.00
2022-10-23T01:20:36.063Z,97958.00
2022-10-23T01:20:46.041Z,97958.00
2022-10-23T01:20:56.155Z,97956.00
2022-10-23T01:21:06.407Z,97956.00
2022-10-23T01:21:16.527Z,97956.00
2022-10-23T01:21:26.525Z,97956.00
2022-10-23T01:21:36.777Z,97960.00
2022-10-23T01:21:46.778Z,97956.00
2022-10-23T01:21:56.900Z,97958.00
2022-10-23T01:22:07.156Z,97956.00
2022-10-23T01:22:17.335Z,97958.00
2022-10-23T01:22:27.346Z,97954.00
2022-10-23T01:22:37.593Z,97954.00
2022-10-23T01:22:47.712Z,97956.00
2022-10-23T01:22:57.854Z,97956.00
2022-10-23T01:23:07.977Z,97956.00
2022-10-23T01:23:18.095Z,97956.00
2022-10-23T01:23:28.220Z,97954.00
2022-10-23T01:23:38.344Z,97956.00
2022-10-23T01:23:48.460Z,97954.00
2022-10-23T01:23:58.588Z,97952.00
2022-10-23T01:24:08.716Z,97954.00
2022-10-23T01:24:18.836Z,97952.00
2022-10-23T01:24:28.974Z,97954.00
2022-10-23T01:24:39.108Z,97954.00
2022-10-23T01:24:49.234Z,97954.00
2022-10-23T01:24:59.346Z,97956.00
2022-10-23T01:25:09.467Z,97952.00
2022-10-23T01:25:19.466Z,97956.00
2022-10-23T01:25:29.604Z,97954.00
2022-10-23T01:25:39.849Z,97956.00
2022-10-23T01:25:49.969Z,97954.00
2022-10-23T01:26:00.086Z,97954.00
2022-10-23T01:26:10.207Z,97954.00
2022-10-23T01:26:20.209Z,97952.00
2022-10-23T01:26:30.214Z,97954.00
2022-10-23T01:26:40.204Z,97954.00
2022-10-23T01:26:50.326Z,97950.00
2022-10-23T01:27:00.459Z,97950.00
2022-10-23T01:27:10.449Z,97950.00
2022-10-23T01:27:20.455Z,97950.00
2022-10-23T01:27:30.612Z,97948.00
2022-10-23T01:27:40.590Z,97950.00
2022-10-23T01:27:50.710Z,97950.00
2022-10-23T01:28:00.828Z,97950.00
2022-10-23T01:28:10.948Z,97950.00
2022-10-23T01:28:20.957Z,97952.00
2022-10-23T01:28:31.076Z,97950.00
2022-10-23T01:28:41.081Z,97948.00
2022-10-23T01:28:51.330Z,97952.00
2022-10-23T01:29:01.449Z,97948.00
2022-10-23T01:29:11.448Z,97950.00
2022-10-23T01:29:21.695Z,97946.00
2022-10-23T01:29:31.811Z,97948.00
2022-10-23T01:29:41.930Z,97946.00
2022-10-23T01:29:52.052Z,97948.00
2022-10-23T01:30:02.192Z,97948.00
2022-10-23T01:30:12.173Z,97950.00
2022-10-23T01:30:22.439Z,97948.00
2022-10-23T01:30:32.508Z,97948.00
2022-10-23T01:30:42.532Z,97948.00
2022-10-23T01:30:52.514Z,97948.00
2022-10-23T01:31:02.643Z,97944.00
2022-10-23T01:31:12.646Z,97950.00
2022-10-23T01:31:22.643Z,97944.00
2022-10-23T01:31:32.653Z,97946.00
2022-10-23T01:31:42.656Z,97948.00
2022-10-23T01:31:52.661Z,97946.00
2022-10-23T01:32:02.920Z,97944.00
2022-10-23T01:32:12.911Z,97946.00
2022-10-23T01:32:22.906Z,97946.00
2022-10-23T01:32:33.284Z,97950.00
2022-10-23T01:32:43.537Z,97948.00
2022-10-23T01:32:53.339Z,97948.00
2022-10-23T01:33:03.316Z,97946.00
2022-10-23T01:33:13.447Z,97946.00
2022-10-23T01:33:23.562Z,97948.00
2022-10-23T01:33:33.684Z,97950.00
2022-10-23T01:33:43.686Z,97948.00
2022-10-23T01:33:53.684Z,97946.00
2022-10-23T01:34:03.689Z,97946.00
2022-10-23T01:34:13.810Z,97948.00
2022-10-23T01:34:23.930Z,97946.00
2022-10-23T01:34:34.060Z,97946.00
2022-10-23T01:34:44.065Z,97948.00
2022-10-23T01:34:54.179Z,97950.00
2022-10-23T01:35:04.275Z,97948.00
2022-10-23T01:35:14.508Z,97948.00
2022-10-23T01:35:24.625Z,97946.00
2022-10-23T01:35:34.743Z,97952.00
2022-10-23T01:35:44.865Z,97946.00
2022-10-23T01:35:54.868Z,97948.00
2022-10-23T01:36:04.870Z,97952.00
2022-10-23T01:36:15.248Z,97952.00
2022-10-23T01:36:25.257Z,97950.00
2022-10-23T01:36:35.382Z,97950.00
2022-10-23T01:36:45.628Z,97954.00
2022-10-23T01:36:55.751Z,97950.00
2022-10-23T01:37:05.752Z,97948.00
2022-10-23T01:37:16.009Z,97950.00
2022-10-23T01:37:26.124Z,97948.00
2022-10-23T01:37:36.251Z,97948.00
2022-10-23T01:37:46.380Z,97948.00
2022-10-23T01:37:56.506Z,97948.00
2022-10-23T01:38:06.620Z,97948.00
2022-10-23T01:38:16.746Z,97948.00
2022-10-23T01:38:26.856Z,97950.00
2022-10-23T01:38:36.984Z,97952.00
2022-10-23T01:38:47.114Z,97950.00
2022-10-23T01:38:57.255Z,97948.00
2022-10-23T01:39:07.265Z,97948.00
2022-10-23T01:39:17.530Z,97948.00
2022-10-23T01:39:27.523Z,97952.00
2022-10-23T01:39:37.641Z,97946.00
2022-10-23T01:39:47.894Z,97950.00
2022-10-23T01:39:58.009Z,97948.00
2022-10-23T01:40:08.129Z,97948.00
2022-10-23T01:40:18.248Z,97948.00
2022-10-23T01:40:28.369Z,97950.00
2022-10-23T01:40:38.501Z,97952.00
2022-10-23T01:40:48.631Z,97948.00
2022-10-23T01:40:58.632Z,97948.00
2022-10-23T01:41:08.657Z,97948.00
2022-10-23T01:41:18.654Z,97948.00
2022-10-23T01:41:28.771Z,97950.00
2022-10-23T01:41:38.891Z,97950.00
2022-10-23T01:41:48.887Z,97948.00
2022-10-23T01:41:59.010Z,97950.00
2022-10-23T01:42:09.129Z,97946.00
2022-10-23T01:42:19.247Z,97946.00
2022-10-23T01:42:29.241Z,97946.00
2022-10-23T01:42:39.448Z,97946.00
2022-10-23T01:42:49.382Z,97948.00
2022-10-23T01:42:59.508Z,97948.00
2022-10-23T01:43:09.624Z,97946.00
2022-10-23T01:43:19.741Z,97948.00
2022-10-23T01:43:29.747Z,97946.00
2022-10-23T01:43:39.748Z,97944.00
2022-10-23T01:43:49.864Z,97944.00
2022-10-23T01:44:00.117Z,97946.00
2022-10-23T01:44:10.229Z,97944.00
2022-10-23T01:44:20.351Z,97944.00
2022-10-23T01:44:30.479Z,97944.00
2022-10-23T01:44:40.594Z,97946.00
2022-10-23T01:44:50.720Z,97944.00
2022-10-23T01:45:00.862Z,97942.00
2022-10-23T01:45:10.867Z,97946.00
2022-10-23T01:45:20.980Z,97948.00
2022-10-23T01:45:31.247Z,97948.00
2022-10-23T01:45:41.242Z,97948.00
2022-10-23T01:45:51.359Z,97948.00
2022-10-23T01:46:01.608Z,97948.00
2022-10-23T01:46:11.725Z,97950.00
2022-10-23T01:46:21.848Z,97948.00
2022-10-23T01:46:31.977Z,97948.00
2022-10-23T01:46:42.102Z,97946.00
2022-10-23T01:46:52.094Z,97948.00
2022-10-23T01:47:02.342Z,97948.00
2022-10-23T01:47:12.454Z,97946.00
2022-10-23T01:47:22.457Z,97948.00
2022-10-23T01:47:32.456Z,97950.00
2022-10-23T01:47:42.788Z,97950.00
2022-10-23T01:47:52.554Z,97950.00
2022-10-23T01:48:02.577Z,97946.00
2022-10-23T01:48:12.675Z,97948.00
2022-10-23T01:48:22.790Z,97946.00
2022-10-23T01:48:32.909Z,97946.00
2022-10-23T01:48:43.032Z,97946.00
2022-10-23T01:48:53.062Z,97950.00
2022-10-23T01:49:03.063Z,97946.00
2022-10-23T01:49:13.323Z,97946.00
2022-10-23T01:49:23.322Z,97946.00
2022-10-23T01:49:33.322Z,97948.00
2022-10-23T01:49:43.702Z,97942.00
2022-10-23T01:49:53.700Z,97946.00
2022-10-23T01:50:03.816Z,97944.00
2022-10-23T01:50:14.073Z,97946.00
2022-10-23T01:50:24.069Z,97948.00
2022-10-23T01:50:34.185Z,97946.00
2022-10-23T01:50:44.433Z,97944.00
2022-10-23T01:50:54.549Z,97948.00
2022-10-23T01:51:04.667Z,97948.00
2022-10-23T01:51:14.804Z,97946.00
2022-10-23T01:51:24.817Z,97946.00
2022-10-23T01:51:34.813Z,97946.00
2022-10-23T01:51:45.188Z,97946.00
2022-10-23T01:51:55.306Z,97944.00
2022-10-23T01:52:05.422Z,97944.00
2022-10-23T01:52:15.556Z,97944.00
2022-10-23T01:52:25.692Z,97944.00
2022-10-23T01:52:35.671Z,97946.00
2022-10-23T01:52:45.924Z,97948.00
2022-10-23T01:52:55.931Z,97944.00
2022-10-23T01:53:05.928Z,97946.00
2022-10-23T01:53:15.931Z,97946.00
2022-10-23T01:53:26.052Z,97944.00
2022-10-23T01:53:36.048Z,97946.00
2022-10-23T01:53:46.166Z,97944.00
2022-10-23T01:53:56.289Z,97946.00
2022-10-23T01:54:06.406Z,97944.00
2022-10-23T01:54:16.520Z,97944.00
2022-10-23T01:54:26.641Z,97946.00
2022-10-23T01:54:36.651Z,97946.00
2022-10-23T01:54:46.644Z,97946.00
2022-10-23T01:54:56.649Z,97944.00
2022-10-23T01:55:06.768Z,97944.00
2022-10-23T01:55:16.772Z,97944.00
2022-10-23T01:55:27.034Z,97944.00
2022-10-23T01:55:37.244Z,97946.00
2022-10-23T01:55:47.272Z,97944.00
2022-10-23T01:55:57.401Z,97944.00
2022-10-23T01:56:07.521Z,97942.00
2022-10-23T01:56:17.518Z,97942.00
2022-10-23T01:56:27.768Z,97942.00
2022-10-23T01:56:37.888Z,97942.00
2022-10-23T01:56:48.007Z,97942.00
2022-10-23T01:56:58.135Z,97944.00
2022-10-23T01:57:08.253Z,97942.00
2022-10-23T01:57:18.376Z,97942.00
2022-10-23T01:57:28.496Z,97942.00
2022-10-23T01:57:38.495Z,97942.00
2022-10-23T01:57:48.610Z,97938.00
2022-10-23T01:57:58.865Z,97942.00
2022-10-23T01:58:08.981Z,97940.00
2022-10-23T01:58:19.100Z,97942.00
2022-10-23T01:58:29.220Z,97942.00
2022-10-23T01:58:39.350Z,97942.00
2022-10-23T01:58:49.463Z,97942.00
2022-10-23T01:58:59.587Z,97940.00
2022-10-23T01:59:09.701Z,97942.00